sensor_id;sensor_type;location;lat;lon;timestamp;P1;durP1;ratioP1;P2;durP2;ratioP2
1390;SDS011;690;51.454;7.194;2024-01-15T00:02:20;44.50;;;21.73;;
1390;SDS011;690;51.454;7.194;2024-01-15T00:04:47;47.97;;;24.73;;
1390;SDS011;690;51.454;7.194;2024-01-15T00:07:15;48.00;;;22.50;;
1390;SDS011;690;51.454;7.194;2024-01-15T00:09:42;41.15;;;21.20;;
1390;SDS011;690;51.454;7.194;2024-01-15T00:12:09;46.05;;;23.55;;
1390;SDS011;690;51.454;7.194;2024-01-15T00:14:36;45.45;;;22.40;;
1390;SDS011;690;51.454;7.194;2024-01-15T00:17:03;45.33;;;22.58;;
1390;SDS011;690;51.454;7.194;2024-01-15T00:19:30;46.90;;;21.20;;
1390;SDS011;690;51.454;7.194;2024-01-15T00:21:57;44.17;;;24.88;;
1390;SDS011;690;51.454;7.194;2024-01-15T00:24:25;43.28;;;22.83;;
1390;SDS011;690;51.454;7.194;2024-01-15T00:26:52;49.05;;;21.48;;
1390;SDS011;690;51.454;7.194;2024-01-15T00:29:20;46.00;;;25.40;;
1390;SDS011;690;51.454;7.194;2024-01-15T00:31:47;50.72;;;23.35;;
1390;SDS011;690;51.454;7.194;2024-01-15T00:34:14;51.45;;;23.95;;
1390;SDS011;690;51.454;7.194;2024-01-15T00:36:41;44.95;;;22.88;;
1390;SDS011;690;51.454;7.194;2024-01-15T00:39:08;47.03;;;25.08;;
1390;SDS011;690;51.454;7.194;2024-01-15T00:41:37;46.75;;;23.77;;
1390;SDS011;690;51.454;7.194;2024-01-15T00:44:04;44.67;;;23.23;;
1390;SDS011;690;51.454;7.194;2024-01-15T00:46:32;43.75;;;24.25;;
1390;SDS011;690;51.454;7.194;2024-01-15T00:48:59;47.50;;;22.73;;
1390;SDS011;690;51.454;7.194;2024-01-15T00:51:25;47.58;;;25.48;;
1390;SDS011;690;51.454;7.194;2024-01-15T00:53:52;42.55;;;22.88;;
1390;SDS011;690;51.454;7.194;2024-01-15T00:56:19;45.58;;;22.65;;
1390;SDS011;690;51.454;7.194;2024-01-15T00:58:47;44.28;;;23.35;;
1390;SDS011;690;51.454;7.194;2024-01-15T01:01:14;47.60;;;22.58;;
1390;SDS011;690;51.454;7.194;2024-01-15T01:03:41;45.95;;;23.73;;
1390;SDS011;690;51.454;7.194;2024-01-15T01:06:08;43.05;;;22.73;;
1390;SDS011;690;51.454;7.194;2024-01-15T01:08:35;44.08;;;22.45;;
1390;SDS011;690;51.454;7.194;2024-01-15T01:11:02;48.58;;;21.60;;
1390;SDS011;690;51.454;7.194;2024-01-15T01:13:29;46.70;;;22.75;;
1390;SDS011;690;51.454;7.194;2024-01-15T01:15:57;45.28;;;25.75;;
1390;SDS011;690;51.454;7.194;2024-01-15T01:18:24;37.72;;;18.95;;
1390;SDS011;690;51.454;7.194;2024-01-15T01:20:51;45.38;;;23.13;;
1390;SDS011;690;51.454;7.194;2024-01-15T01:23:18;41.97;;;22.70;;
1390;SDS011;690;51.454;7.194;2024-01-15T01:25:44;39.92;;;21.55;;
1390;SDS011;690;51.454;7.194;2024-01-15T01:28:11;44.92;;;22.98;;
1390;SDS011;690;51.454;7.194;2024-01-15T01:30:38;39.92;;;21.63;;
1390;SDS011;690;51.454;7.194;2024-01-15T01:33:07;39.67;;;21.77;;
1390;SDS011;690;51.454;7.194;2024-01-15T01:35:33;40.58;;;18.70;;
1390;SDS011;690;51.454;7.194;2024-01-15T01:38:00;45.30;;;21.77;;
1390;SDS011;690;51.454;7.194;2024-01-15T01:40:27;42.70;;;21.70;;
1390;SDS011;690;51.454;7.194;2024-01-15T01:42:54;40.55;;;20.25;;
1390;SDS011;690;51.454;7.194;2024-01-15T01:45:21;37.72;;;18.63;;
1390;SDS011;690;51.454;7.194;2024-01-15T01:47:48;42.65;;;20.63;;
1390;SDS011;690;51.454;7.194;2024-01-15T01:50:16;35.38;;;18.30;;
1390;SDS011;690;51.454;7.194;2024-01-15T01:52:44;39.28;;;20.70;;
1390;SDS011;690;51.454;7.194;2024-01-15T01:55:10;35.03;;;19.23;;
1390;SDS011;690;51.454;7.194;2024-01-15T01:57:38;36.38;;;20.48;;
1390;SDS011;690;51.454;7.194;2024-01-15T02:00:07;37.78;;;20.30;;
1390;SDS011;690;51.454;7.194;2024-01-15T02:02:35;36.83;;;19.17;;
1390;SDS011;690;51.454;7.194;2024-01-15T02:05:03;33.08;;;18.95;;
1390;SDS011;690;51.454;7.194;2024-01-15T02:07:34;30.52;;;17.73;;
1390;SDS011;690;51.454;7.194;2024-01-15T02:10:01;39.28;;;19.63;;
1390;SDS011;690;51.454;7.194;2024-01-15T02:12:28;26.63;;;15.98;;
1390;SDS011;690;51.454;7.194;2024-01-15T02:14:55;36.38;;;18.92;;
1390;SDS011;690;51.454;7.194;2024-01-15T02:17:22;34.67;;;18.27;;
1390;SDS011;690;51.454;7.194;2024-01-15T02:19:49;32.90;;;16.15;;
1390;SDS011;690;51.454;7.194;2024-01-15T02:22:16;32.50;;;16.15;;
1390;SDS011;690;51.454;7.194;2024-01-15T02:24:44;34.38;;;18.35;;
1390;SDS011;690;51.454;7.194;2024-01-15T02:27:11;30.50;;;18.30;;
1390;SDS011;690;51.454;7.194;2024-01-15T02:29:38;31.42;;;17.10;;
1390;SDS011;690;51.454;7.194;2024-01-15T02:32:06;36.28;;;19.05;;
1390;SDS011;690;51.454;7.194;2024-01-15T02:34:34;41.33;;;18.73;;
1390;SDS011;690;51.454;7.194;2024-01-15T02:37:01;36.95;;;18.05;;
1390;SDS011;690;51.454;7.194;2024-01-15T02:39:28;31.55;;;17.77;;
1390;SDS011;690;51.454;7.194;2024-01-15T02:41:56;27.33;;;17.27;;
1390;SDS011;690;51.454;7.194;2024-01-15T02:44:23;36.33;;;19.98;;
1390;SDS011;690;51.454;7.194;2024-01-15T02:46:50;30.23;;;16.70;;
1390;SDS011;690;51.454;7.194;2024-01-15T02:49:17;21.48;;;12.48;;
1390;SDS011;690;51.454;7.194;2024-01-15T02:51:44;29.05;;;16.17;;
1390;SDS011;690;51.454;7.194;2024-01-15T02:54:12;31.42;;;18.23;;
1390;SDS011;690;51.454;7.194;2024-01-15T02:56:38;28.38;;;17.00;;
1390;SDS011;690;51.454;7.194;2024-01-15T02:59:07;33.28;;;18.27;;
1390;SDS011;690;51.454;7.194;2024-01-15T03:01:34;33.40;;;17.55;;
1390;SDS011;690;51.454;7.194;2024-01-15T03:04:00;30.42;;;17.20;;
1390;SDS011;690;51.454;7.194;2024-01-15T03:06:27;30.00;;;16.88;;
1390;SDS011;690;51.454;7.194;2024-01-15T03:08:54;30.45;;;17.30;;
1390;SDS011;690;51.454;7.194;2024-01-15T03:11:21;27.83;;;15.20;;
1390;SDS011;690;51.454;7.194;2024-01-15T03:13:48;33.38;;;16.33;;
1390;SDS011;690;51.454;7.194;2024-01-15T03:16:16;31.67;;;17.17;;
1390;SDS011;690;51.454;7.194;2024-01-15T03:18:45;32.95;;;15.57;;
1390;SDS011;690;51.454;7.194;2024-01-15T03:21:12;34.85;;;17.02;;
1390;SDS011;690;51.454;7.194;2024-01-15T03:23:39;29.52;;;15.98;;
1390;SDS011;690;51.454;7.194;2024-01-15T03:26:05;28.13;;;16.30;;
1390;SDS011;690;51.454;7.194;2024-01-15T03:28:32;30.38;;;15.18;;
1390;SDS011;690;51.454;7.194;2024-01-15T03:30:59;24.00;;;13.27;;
1390;SDS011;690;51.454;7.194;2024-01-15T03:33:27;27.48;;;15.55;;
1390;SDS011;690;51.454;7.194;2024-01-15T03:35:54;23.27;;;14.73;;
1390;SDS011;690;51.454;7.194;2024-01-15T03:38:22;24.40;;;15.30;;
1390;SDS011;690;51.454;7.194;2024-01-15T03:40:49;26.40;;;15.07;;
1390;SDS011;690;51.454;7.194;2024-01-15T03:43:16;26.33;;;13.80;;
1390;SDS011;690;51.454;7.194;2024-01-15T03:45:43;27.55;;;14.68;;
1390;SDS011;690;51.454;7.194;2024-01-15T03:48:10;27.65;;;15.00;;
1390;SDS011;690;51.454;7.194;2024-01-15T03:50:39;24.77;;;13.93;;
1390;SDS011;690;51.454;7.194;2024-01-15T03:53:05;25.10;;;14.43;;
1390;SDS011;690;51.454;7.194;2024-01-15T03:55:32;21.50;;;12.60;;
1390;SDS011;690;51.454;7.194;2024-01-15T03:57:59;24.13;;;12.30;;
1390;SDS011;690;51.454;7.194;2024-01-15T04:00:26;26.88;;;14.50;;
1390;SDS011;690;51.454;7.194;2024-01-15T04:02:55;25.48;;;15.77;;
1390;SDS011;690;51.454;7.194;2024-01-15T04:05:22;26.58;;;12.10;;
1390;SDS011;690;51.454;7.194;2024-01-15T04:07:50;27.48;;;13.30;;
1390;SDS011;690;51.454;7.194;2024-01-15T04:10:17;17.25;;;11.90;;
1390;SDS011;690;51.454;7.194;2024-01-15T04:12:44;26.80;;;12.40;;
1390;SDS011;690;51.454;7.194;2024-01-15T04:15:11;22.60;;;11.45;;
1390;SDS011;690;51.454;7.194;2024-01-15T04:17:38;26.80;;;14.80;;
1390;SDS011;690;51.454;7.194;2024-01-15T04:20:06;23.50;;;12.70;;
1390;SDS011;690;51.454;7.194;2024-01-15T04:22:33;21.50;;;11.82;;
1390;SDS011;690;51.454;7.194;2024-01-15T04:25:03;18.23;;;11.75;;
1390;SDS011;690;51.454;7.194;2024-01-15T04:27:30;18.65;;;11.15;;
1390;SDS011;690;51.454;7.194;2024-01-15T04:29:57;22.33;;;11.30;;
1390;SDS011;690;51.454;7.194;2024-01-15T04:32:24;23.20;;;10.50;;
1390;SDS011;690;51.454;7.194;2024-01-15T04:34:51;24.00;;;11.63;;
1390;SDS011;690;51.454;7.194;2024-01-15T04:37:17;19.48;;;11.43;;
1390;SDS011;690;51.454;7.194;2024-01-15T04:39:44;20.48;;;10.63;;
1390;SDS011;690;51.454;7.194;2024-01-15T04:42:13;22.17;;;11.73;;
1390;SDS011;690;51.454;7.194;2024-01-15T04:44:39;18.10;;;10.80;;
1390;SDS011;690;51.454;7.194;2024-01-15T04:47:06;16.17;;;10.75;;
1390;SDS011;690;51.454;7.194;2024-01-15T04:49:33;27.17;;;11.45;;
1390;SDS011;690;51.454;7.194;2024-01-15T04:52:00;15.35;;;9.75;;
1390;SDS011;690;51.454;7.194;2024-01-15T04:54:27;16.02;;;10.13;;
1390;SDS011;690;51.454;7.194;2024-01-15T04:56:54;21.98;;;10.57;;
1390;SDS011;690;51.454;7.194;2024-01-15T04:59:22;18.52;;;10.30;;
1390;SDS011;690;51.454;7.194;2024-01-15T05:01:49;19.88;;;10.93;;
1390;SDS011;690;51.454;7.194;2024-01-15T05:04:16;18.42;;;9.63;;
1390;SDS011;690;51.454;7.194;2024-01-15T05:06:43;20.25;;;10.90;;
1390;SDS011;690;51.454;7.194;2024-01-15T05:09:09;18.83;;;11.15;;
1390;SDS011;690;51.454;7.194;2024-01-15T05:11:38;18.75;;;10.13;;
1390;SDS011;690;51.454;7.194;2024-01-15T05:14:05;18.23;;;11.07;;
1390;SDS011;690;51.454;7.194;2024-01-15T05:16:33;27.20;;;13.32;;
1390;SDS011;690;51.454;7.194;2024-01-15T05:19:00;24.17;;;13.15;;
1390;SDS011;690;51.454;7.194;2024-01-15T05:21:27;20.55;;;11.20;;
1390;SDS011;690;51.454;7.194;2024-01-15T05:23:54;18.20;;;11.88;;
1390;SDS011;690;51.454;7.194;2024-01-15T05:26:21;20.95;;;12.57;;
1390;SDS011;690;51.454;7.194;2024-01-15T05:28:48;22.58;;;11.18;;
1390;SDS011;690;51.454;7.194;2024-01-15T05:31:14;20.10;;;9.95;;
1390;SDS011;690;51.454;7.194;2024-01-15T05:33:43;22.38;;;12.82;;
1390;SDS011;690;51.454;7.194;2024-01-15T05:36:09;21.98;;;13.48;;
1390;SDS011;690;51.454;7.194;2024-01-15T05:38:36;23.92;;;12.02;;
1390;SDS011;690;51.454;7.194;2024-01-15T05:41:04;29.10;;;12.38;;
1390;SDS011;690;51.454;7.194;2024-01-15T05:43:31;21.65;;;11.60;;
1390;SDS011;690;51.454;7.194;2024-01-15T05:45:58;21.30;;;13.15;;
1390;SDS011;690;51.454;7.194;2024-01-15T05:48:25;21.15;;;11.95;;
1390;SDS011;690;51.454;7.194;2024-01-15T05:50:53;16.13;;;11.45;;
1390;SDS011;690;51.454;7.194;2024-01-15T05:53:20;20.48;;;11.60;;
1390;SDS011;690;51.454;7.194;2024-01-15T05:55:47;16.40;;;11.88;;
1390;SDS011;690;51.454;7.194;2024-01-15T05:58:14;17.77;;;11.02;;
1390;SDS011;690;51.454;7.194;2024-01-15T06:00:41;21.20;;;11.18;;
1390;SDS011;690;51.454;7.194;2024-01-15T06:03:08;21.60;;;12.98;;
1390;SDS011;690;51.454;7.194;2024-01-15T06:05:35;17.20;;;11.85;;
1390;SDS011;690;51.454;7.194;2024-01-15T06:08:03;19.75;;;10.90;;
1390;SDS011;690;51.454;7.194;2024-01-15T06:10:30;19.30;;;13.15;;
1390;SDS011;690;51.454;7.194;2024-01-15T06:12:57;19.90;;;9.30;;
1390;SDS011;690;51.454;7.194;2024-01-15T06:15:23;18.20;;;10.23;;
1390;SDS011;690;51.454;7.194;2024-01-15T06:17:50;18.65;;;11.27;;
1390;SDS011;690;51.454;7.194;2024-01-15T06:20:17;16.65;;;11.20;;
1390;SDS011;690;51.454;7.194;2024-01-15T06:22:44;18.20;;;10.38;;
1390;SDS011;690;51.454;7.194;2024-01-15T06:25:12;18.67;;;10.90;;
1390;SDS011;690;51.454;7.194;2024-01-15T06:27:39;15.70;;;10.18;;
1390;SDS011;690;51.454;7.194;2024-01-15T06:30:06;16.17;;;10.48;;
1390;SDS011;690;51.454;7.194;2024-01-15T06:32:34;18.42;;;10.60;;
1390;SDS011;690;51.454;7.194;2024-01-15T06:35:01;14.88;;;10.63;;
1390;SDS011;690;51.454;7.194;2024-01-15T06:37:28;20.02;;;10.98;;
1390;SDS011;690;51.454;7.194;2024-01-15T06:39:55;10.88;;;8.20;;
1390;SDS011;690;51.454;7.194;2024-01-15T06:42:23;18.05;;;10.00;;
1390;SDS011;690;51.454;7.194;2024-01-15T06:44:51;18.27;;;10.32;;
1390;SDS011;690;51.454;7.194;2024-01-15T06:47:18;19.25;;;12.18;;
1390;SDS011;690;51.454;7.194;2024-01-15T06:49:44;19.08;;;10.95;;
1390;SDS011;690;51.454;7.194;2024-01-15T06:52:11;18.63;;;10.40;;
1390;SDS011;690;51.454;7.194;2024-01-15T06:54:38;19.02;;;12.15;;
1390;SDS011;690;51.454;7.194;2024-01-15T06:57:05;19.70;;;10.80;;
1390;SDS011;690;51.454;7.194;2024-01-15T06:59:33;21.67;;;10.98;;
1390;SDS011;690;51.454;7.194;2024-01-15T07:02:01;16.33;;;10.98;;
1390;SDS011;690;51.454;7.194;2024-01-15T07:04:28;21.65;;;12.18;;
1390;SDS011;690;51.454;7.194;2024-01-15T07:06:55;21.75;;;12.30;;
1390;SDS011;690;51.454;7.194;2024-01-15T07:09:22;19.50;;;12.20;;
1390;SDS011;690;51.454;7.194;2024-01-15T07:11:49;23.50;;;12.70;;
1390;SDS011;690;51.454;7.194;2024-01-15T07:14:16;19.98;;;12.68;;
1390;SDS011;690;51.454;7.194;2024-01-15T07:16:44;20.52;;;12.45;;
1390;SDS011;690;51.454;7.194;2024-01-15T07:19:11;21.98;;;13.30;;
1390;SDS011;690;51.454;7.194;2024-01-15T07:21:38;23.08;;;12.98;;
1390;SDS011;690;51.454;7.194;2024-01-15T07:24:08;21.08;;;12.82;;
1390;SDS011;690;51.454;7.194;2024-01-15T07:26:35;19.50;;;13.88;;
1390;SDS011;690;51.454;7.194;2024-01-15T07:29:02;23.38;;;13.55;;
1390;SDS011;690;51.454;7.194;2024-01-15T07:31:29;21.33;;;12.68;;
1390;SDS011;690;51.454;7.194;2024-01-15T07:33:57;18.73;;;11.90;;
1390;SDS011;690;51.454;7.194;2024-01-15T07:36:25;18.10;;;11.95;;
1390;SDS011;690;51.454;7.194;2024-01-15T07:38:52;16.50;;;11.93;;
1390;SDS011;690;51.454;7.194;2024-01-15T07:41:18;16.83;;;11.35;;
1390;SDS011;690;51.454;7.194;2024-01-15T07:43:45;15.48;;;9.60;;
1390;SDS011;690;51.454;7.194;2024-01-15T07:46:12;18.33;;;10.82;;
1390;SDS011;690;51.454;7.194;2024-01-15T07:48:39;19.48;;;10.88;;
1390;SDS011;690;51.454;7.194;2024-01-15T07:51:07;15.80;;;11.15;;
1390;SDS011;690;51.454;7.194;2024-01-15T07:53:34;12.43;;;9.52;;
1390;SDS011;690;51.454;7.194;2024-01-15T07:56:01;17.02;;;10.05;;
1390;SDS011;690;51.454;7.194;2024-01-15T07:58:28;16.98;;;9.80;;
1390;SDS011;690;51.454;7.194;2024-01-15T08:00:55;15.50;;;9.20;;
1390;SDS011;690;51.454;7.194;2024-01-15T08:03:22;15.13;;;9.65;;
1390;SDS011;690;51.454;7.194;2024-01-15T08:05:49;15.52;;;9.90;;
1390;SDS011;690;51.454;7.194;2024-01-15T08:08:19;14.82;;;9.15;;
1390;SDS011;690;51.454;7.194;2024-01-15T08:10:48;14.73;;;9.18;;
1390;SDS011;690;51.454;7.194;2024-01-15T08:13:15;14.45;;;9.80;;
1390;SDS011;690;51.454;7.194;2024-01-15T08:15:42;15.45;;;9.93;;
1390;SDS011;690;51.454;7.194;2024-01-15T08:18:09;21.00;;;10.32;;
1390;SDS011;690;51.454;7.194;2024-01-15T08:20:35;14.80;;;9.30;;
1390;SDS011;690;51.454;7.194;2024-01-15T08:23:03;11.48;;;7.72;;
1390;SDS011;690;51.454;7.194;2024-01-15T08:25:31;11.50;;;8.10;;
1390;SDS011;690;51.454;7.194;2024-01-15T08:27:58;11.30;;;7.43;;
1390;SDS011;690;51.454;7.194;2024-01-15T08:30:25;10.20;;;5.90;;
1390;SDS011;690;51.454;7.194;2024-01-15T08:32:52;9.98;;;6.13;;
1390;SDS011;690;51.454;7.194;2024-01-15T08:35:19;10.30;;;6.57;;
1390;SDS011;690;51.454;7.194;2024-01-15T08:37:48;9.80;;;6.13;;
1390;SDS011;690;51.454;7.194;2024-01-15T08:40:15;12.63;;;8.50;;
1390;SDS011;690;51.454;7.194;2024-01-15T08:42:43;9.75;;;6.47;;
1390;SDS011;690;51.454;7.194;2024-01-15T08:45:11;12.20;;;7.55;;
1390;SDS011;690;51.454;7.194;2024-01-15T08:47:38;10.88;;;6.75;;
1390;SDS011;690;51.454;7.194;2024-01-15T08:50:06;10.40;;;7.22;;
1390;SDS011;690;51.454;7.194;2024-01-15T08:52:35;10.43;;;7.78;;
1390;SDS011;690;51.454;7.194;2024-01-15T08:55:02;12.85;;;8.52;;
1390;SDS011;690;51.454;7.194;2024-01-15T08:57:32;13.48;;;9.63;;
1390;SDS011;690;51.454;7.194;2024-01-15T09:00:00;14.35;;;9.20;;
1390;SDS011;690;51.454;7.194;2024-01-15T09:02:28;12.73;;;8.63;;
1390;SDS011;690;51.454;7.194;2024-01-15T09:04:55;16.30;;;11.63;;
1390;SDS011;690;51.454;7.194;2024-01-15T09:07:22;17.42;;;9.98;;
1390;SDS011;690;51.454;7.194;2024-01-15T09:09:50;15.98;;;11.35;;
1390;SDS011;690;51.454;7.194;2024-01-15T09:12:17;18.98;;;12.10;;
1390;SDS011;690;51.454;7.194;2024-01-15T09:14:46;21.40;;;12.85;;
1390;SDS011;690;51.454;7.194;2024-01-15T09:17:14;20.60;;;13.32;;
1390;SDS011;690;51.454;7.194;2024-01-15T09:19:41;23.20;;;12.35;;
1390;SDS011;690;51.454;7.194;2024-01-15T09:22:08;23.00;;;13.35;;
1390;SDS011;690;51.454;7.194;2024-01-15T09:24:35;21.67;;;12.73;;
1390;SDS011;690;51.454;7.194;2024-01-15T09:27:02;21.77;;;13.43;;
1390;SDS011;690;51.454;7.194;2024-01-15T09:29:29;18.70;;;12.65;;
1390;SDS011;690;51.454;7.194;2024-01-15T09:31:57;21.00;;;12.95;;
1390;SDS011;690;51.454;7.194;2024-01-15T09:34:25;15.90;;;10.20;;
1390;SDS011;690;51.454;7.194;2024-01-15T09:36:52;16.83;;;10.68;;
1390;SDS011;690;51.454;7.194;2024-01-15T09:39:18;14.38;;;10.35;;
1390;SDS011;690;51.454;7.194;2024-01-15T09:41:45;16.67;;;11.07;;
1390;SDS011;690;51.454;7.194;2024-01-15T09:44:13;21.15;;;11.77;;
1390;SDS011;690;51.454;7.194;2024-01-15T09:46:40;17.77;;;11.07;;
1390;SDS011;690;51.454;7.194;2024-01-15T09:49:09;17.38;;;10.07;;
1390;SDS011;690;51.454;7.194;2024-01-15T09:51:38;15.60;;;9.30;;
1390;SDS011;690;51.454;7.194;2024-01-15T09:54:06;13.10;;;7.60;;
1390;SDS011;690;51.454;7.194;2024-01-15T09:56:34;11.60;;;7.53;;
1390;SDS011;690;51.454;7.194;2024-01-15T09:59:01;13.52;;;7.68;;
1390;SDS011;690;51.454;7.194;2024-01-15T10:01:29;17.90;;;7.60;;
1390;SDS011;690;51.454;7.194;2024-01-15T10:03:58;10.32;;;6.68;;
1390;SDS011;690;51.454;7.194;2024-01-15T10:06:26;12.60;;;8.02;;
1390;SDS011;690;51.454;7.194;2024-01-15T10:08:55;15.05;;;7.95;;
1390;SDS011;690;51.454;7.194;2024-01-15T10:11:24;14.95;;;8.45;;
1390;SDS011;690;51.454;7.194;2024-01-15T10:13:51;14.13;;;8.98;;
1390;SDS011;690;51.454;7.194;2024-01-15T10:16:19;17.10;;;10.30;;
1390;SDS011;690;51.454;7.194;2024-01-15T10:18:47;15.93;;;10.05;;
1390;SDS011;690;51.454;7.194;2024-01-15T10:21:14;15.93;;;9.48;;
1390;SDS011;690;51.454;7.194;2024-01-15T10:23:41;17.17;;;10.65;;
1390;SDS011;690;51.454;7.194;2024-01-15T10:26:10;14.93;;;8.73;;
1390;SDS011;690;51.454;7.194;2024-01-15T10:28:38;19.90;;;10.35;;
1390;SDS011;690;51.454;7.194;2024-01-15T10:31:06;22.77;;;11.45;;
1390;SDS011;690;51.454;7.194;2024-01-15T10:33:33;16.10;;;10.85;;
1390;SDS011;690;51.454;7.194;2024-01-15T10:36:00;16.55;;;10.68;;
1390;SDS011;690;51.454;7.194;2024-01-15T10:38:27;16.40;;;11.48;;
1390;SDS011;690;51.454;7.194;2024-01-15T10:40:54;18.08;;;11.38;;
1390;SDS011;690;51.454;7.194;2024-01-15T10:43:23;21.13;;;12.73;;
1390;SDS011;690;51.454;7.194;2024-01-15T10:45:50;17.60;;;11.38;;
1390;SDS011;690;51.454;7.194;2024-01-15T10:48:18;16.75;;;10.93;;
1390;SDS011;690;51.454;7.194;2024-01-15T10:50:45;15.50;;;11.23;;
1390;SDS011;690;51.454;7.194;2024-01-15T10:53:14;18.08;;;12.00;;
1390;SDS011;690;51.454;7.194;2024-01-15T10:55:43;16.73;;;11.38;;
1390;SDS011;690;51.454;7.194;2024-01-15T10:58:13;20.73;;;12.35;;
1390;SDS011;690;51.454;7.194;2024-01-15T11:00:43;16.02;;;10.85;;
1390;SDS011;690;51.454;7.194;2024-01-15T11:03:10;20.33;;;12.13;;
1390;SDS011;690;51.454;7.194;2024-01-15T11:05:38;18.42;;;10.90;;
1390;SDS011;690;51.454;7.194;2024-01-15T11:08:08;20.35;;;11.60;;
1390;SDS011;690;51.454;7.194;2024-01-15T11:10:39;15.75;;;9.48;;
1390;SDS011;690;51.454;7.194;2024-01-15T11:13:08;16.30;;;11.00;;
1390;SDS011;690;51.454;7.194;2024-01-15T11:18:22;17.25;;;11.15;;
1390;SDS011;690;51.454;7.194;2024-01-15T11:23:52;16.90;;;10.40;;
1390;SDS011;690;51.454;7.194;2024-01-15T11:26:35;15.98;;;10.25;;
1390;SDS011;690;51.454;7.194;2024-01-15T11:29:03;15.18;;;9.85;;
1390;SDS011;690;51.454;7.194;2024-01-15T11:37:27;12.85;;;8.23;;
1390;SDS011;690;51.454;7.194;2024-01-15T11:39:55;13.38;;;8.10;;
1390;SDS011;690;51.454;7.194;2024-01-15T11:42:22;10.77;;;7.22;;
1390;SDS011;690;51.454;7.194;2024-01-15T11:44:49;9.63;;;6.68;;
1390;SDS011;690;51.454;7.194;2024-01-15T11:50:19;12.35;;;5.85;;
1390;SDS011;690;51.454;7.194;2024-01-15T11:52:50;11.73;;;5.55;;
1390;SDS011;690;51.454;7.194;2024-01-15T11:55:26;9.43;;;5.93;;
1390;SDS011;690;51.454;7.194;2024-01-15T11:57:54;7.22;;;5.72;;
1390;SDS011;690;51.454;7.194;2024-01-15T12:00:24;9.98;;;7.45;;
1390;SDS011;690;51.454;7.194;2024-01-15T12:02:52;8.88;;;6.50;;
1390;SDS011;690;51.454;7.194;2024-01-15T12:05:20;13.63;;;8.23;;
1390;SDS011;690;51.454;7.194;2024-01-15T12:07:47;16.02;;;7.78;;
1390;SDS011;690;51.454;7.194;2024-01-15T12:10:15;11.43;;;7.78;;
1390;SDS011;690;51.454;7.194;2024-01-15T12:12:54;14.32;;;8.05;;
1390;SDS011;690;51.454;7.194;2024-01-15T12:15:24;10.77;;;7.47;;
1390;SDS011;690;51.454;7.194;2024-01-15T12:20:35;11.30;;;7.05;;
1390;SDS011;690;51.454;7.194;2024-01-15T12:23:02;10.23;;;6.10;;
1390;SDS011;690;51.454;7.194;2024-01-15T12:25:30;9.85;;;7.13;;
1390;SDS011;690;51.454;7.194;2024-01-15T12:27:57;11.38;;;8.15;;
1390;SDS011;690;51.454;7.194;2024-01-15T12:30:25;13.25;;;7.65;;
1390;SDS011;690;51.454;7.194;2024-01-15T12:32:52;13.43;;;7.70;;
1390;SDS011;690;51.454;7.194;2024-01-15T12:35:21;17.98;;;9.70;;
1390;SDS011;690;51.454;7.194;2024-01-15T12:37:51;7.50;;;6.50;;
1390;SDS011;690;51.454;7.194;2024-01-15T12:40:18;14.95;;;8.52;;
1390;SDS011;690;51.454;7.194;2024-01-15T12:42:46;10.80;;;7.30;;
1390;SDS011;690;51.454;7.194;2024-01-15T12:45:13;11.18;;;8.15;;
1390;SDS011;690;51.454;7.194;2024-01-15T12:47:40;13.23;;;8.43;;
1390;SDS011;690;51.454;7.194;2024-01-15T12:50:08;10.02;;;7.97;;
1390;SDS011;690;51.454;7.194;2024-01-15T12:52:37;14.02;;;7.53;;
1390;SDS011;690;51.454;7.194;2024-01-15T12:55:07;11.95;;;7.88;;
1390;SDS011;690;51.454;7.194;2024-01-15T12:57:35;6.82;;;5.78;;
1390;SDS011;690;51.454;7.194;2024-01-15T13:00:02;11.55;;;7.50;;
1390;SDS011;690;51.454;7.194;2024-01-15T13:02:31;7.22;;;5.25;;
1390;SDS011;690;51.454;7.194;2024-01-15T13:04:59;12.70;;;5.85;;
1390;SDS011;690;51.454;7.194;2024-01-15T13:07:26;6.78;;;4.63;;
1390;SDS011;690;51.454;7.194;2024-01-15T13:09:55;13.55;;;5.30;;
1390;SDS011;690;51.454;7.194;2024-01-15T13:12:22;6.78;;;4.20;;
1390;SDS011;690;51.454;7.194;2024-01-15T13:14:48;10.30;;;4.47;;
1390;SDS011;690;51.454;7.194;2024-01-15T13:17:15;4.40;;;3.63;;
1390;SDS011;690;51.454;7.194;2024-01-15T13:19:42;3.97;;;3.55;;
1390;SDS011;690;51.454;7.194;2024-01-15T13:22:09;4.70;;;3.72;;
1390;SDS011;690;51.454;7.194;2024-01-15T13:24:39;5.00;;;2.97;;
1390;SDS011;690;51.454;7.194;2024-01-15T13:27:07;5.95;;;4.00;;
1390;SDS011;690;51.454;7.194;2024-01-15T13:29:34;6.88;;;4.18;;
1390;SDS011;690;51.454;7.194;2024-01-15T13:32:01;5.15;;;2.50;;
1390;SDS011;690;51.454;7.194;2024-01-15T13:34:28;11.27;;;4.18;;
1390;SDS011;690;51.454;7.194;2024-01-15T13:36:55;5.60;;;3.63;;
1390;SDS011;690;51.454;7.194;2024-01-15T13:39:22;4.20;;;3.50;;
1390;SDS011;690;51.454;7.194;2024-01-15T13:41:49;6.40;;;3.40;;
1390;SDS011;690;51.454;7.194;2024-01-15T13:44:17;4.38;;;2.85;;
1390;SDS011;690;51.454;7.194;2024-01-15T13:46:44;8.95;;;3.05;;
1390;SDS011;690;51.454;7.194;2024-01-15T13:49:11;5.72;;;2.35;;
1390;SDS011;690;51.454;7.194;2024-01-15T13:51:39;3.70;;;2.33;;
1390;SDS011;690;51.454;7.194;2024-01-15T13:54:06;7.70;;;2.50;;
1390;SDS011;690;51.454;7.194;2024-01-15T13:56:33;4.53;;;1.77;;
1390;SDS011;690;51.454;7.194;2024-01-15T13:59:00;4.78;;;2.05;;
1390;SDS011;690;51.454;7.194;2024-01-15T14:01:30;4.22;;;3.00;;
1390;SDS011;690;51.454;7.194;2024-01-15T14:03:58;4.28;;;3.00;;
1390;SDS011;690;51.454;7.194;2024-01-15T14:06:25;3.05;;;2.75;;
1390;SDS011;690;51.454;7.194;2024-01-15T14:08:52;7.60;;;2.20;;
1390;SDS011;690;51.454;7.194;2024-01-15T14:11:19;3.60;;;3.40;;
1390;SDS011;690;51.454;7.194;2024-01-15T14:13:46;5.82;;;2.85;;
1390;SDS011;690;51.454;7.194;2024-01-15T14:16:13;2.42;;;2.22;;
1390;SDS011;690;51.454;7.194;2024-01-15T14:18:41;2.50;;;2.30;;
1390;SDS011;690;51.454;7.194;2024-01-15T14:21:08;4.78;;;2.33;;
1390;SDS011;690;51.454;7.194;2024-01-15T14:23:35;4.47;;;2.60;;
1390;SDS011;690;51.454;7.194;2024-01-15T14:26:02;7.82;;;3.30;;
1390;SDS011;690;51.454;7.194;2024-01-15T14:28:29;4.40;;;2.22;;
1390;SDS011;690;51.454;7.194;2024-01-15T14:30:56;6.93;;;3.30;;
1390;SDS011;690;51.454;7.194;2024-01-15T14:33:25;3.35;;;2.78;;
1390;SDS011;690;51.454;7.194;2024-01-15T14:35:53;4.07;;;2.67;;
1390;SDS011;690;51.454;7.194;2024-01-15T14:38:20;2.30;;;2.10;;
1390;SDS011;690;51.454;7.194;2024-01-15T14:40:47;5.50;;;3.67;;
1390;SDS011;690;51.454;7.194;2024-01-15T14:43:14;4.78;;;3.72;;
1390;SDS011;690;51.454;7.194;2024-01-15T14:45:41;5.35;;;3.80;;
1390;SDS011;690;51.454;7.194;2024-01-15T14:48:09;4.30;;;3.58;;
1390;SDS011;690;51.454;7.194;2024-01-15T14:50:38;8.15;;;3.83;;
1390;SDS011;690;51.454;7.194;2024-01-15T14:53:06;6.88;;;4.15;;
1390;SDS011;690;51.454;7.194;2024-01-15T14:55:33;7.90;;;4.18;;
1390;SDS011;690;51.454;7.194;2024-01-15T14:58:00;5.18;;;4.10;;
1390;SDS011;690;51.454;7.194;2024-01-15T15:00:27;3.30;;;2.95;;
1390;SDS011;690;51.454;7.194;2024-01-15T15:02:54;4.45;;;2.65;;
1390;SDS011;690;51.454;7.194;2024-01-15T15:05:21;3.22;;;2.63;;
1390;SDS011;690;51.454;7.194;2024-01-15T15:07:52;4.10;;;2.80;;
1390;SDS011;690;51.454;7.194;2024-01-15T15:10:20;3.47;;;2.72;;
1390;SDS011;690;51.454;7.194;2024-01-15T15:12:47;4.93;;;3.17;;
1390;SDS011;690;51.454;7.194;2024-01-15T15:15:14;4.80;;;2.88;;
1390;SDS011;690;51.454;7.194;2024-01-15T15:17:41;5.60;;;3.75;;
1390;SDS011;690;51.454;7.194;2024-01-15T15:20:09;5.20;;;3.05;;
1390;SDS011;690;51.454;7.194;2024-01-15T15:22:37;5.80;;;3.60;;
1390;SDS011;690;51.454;7.194;2024-01-15T15:25:04;10.13;;;3.38;;
1390;SDS011;690;51.454;7.194;2024-01-15T15:27:34;8.40;;;3.15;;
1390;SDS011;690;51.454;7.194;2024-01-15T15:30:02;10.93;;;2.80;;